sensor_id;sensor_type;location;lat;lon;timestamp;temperature;humidity
14140;DHT22;7150;53.514;9.988;2023-06-24T00:02:02;24.20;89.30
14140;DHT22;7150;53.514;9.988;2023-06-24T00:04:28;24.20;89.30
14140;DHT22;7150;53.514;9.988;2023-06-24T00:06:53;24.20;89.30
14140;DHT22;7150;53.514;9.988;2023-06-24T00:09:24;24.20;89.30
14140;DHT22;7150;53.514;9.988;2023-06-24T00:11:49;24.20;89.40
14140;DHT22;7150;53.514;9.988;2023-06-24T00:14:15;24.20;89.50
14140;DHT22;7150;53.514;9.988;2023-06-24T00:16:40;24.20;89.50
14140;DHT22;7150;53.514;9.988;2023-06-24T00:19:07;24.20;89.50
14140;DHT22;7150;53.514;9.988;2023-06-24T00:21:33;24.10;89.50
14140;DHT22;7150;53.514;9.988;2023-06-24T00:24:00;24.10;89.70
14140;DHT22;7150;53.514;9.988;2023-06-24T00:26:29;24.10;89.80
14140;DHT22;7150;53.514;9.988;2023-06-24T00:28:55;24.10;90.00
14140;DHT22;7150;53.514;9.988;2023-06-24T00:31:21;24.00;89.90
14140;DHT22;7150;53.514;9.988;2023-06-24T00:33:46;24.00;90.00
14140;DHT22;7150;53.514;9.988;2023-06-24T00:36:12;24.00;90.00
14140;DHT22;7150;53.514;9.988;2023-06-24T00:38:38;24.00;90.10
14140;DHT22;7150;53.514;9.988;2023-06-24T00:41:04;24.00;90.10
14140;DHT22;7150;53.514;9.988;2023-06-24T00:43:30;24.00;90.20
14140;DHT22;7150;53.514;9.988;2023-06-24T00:45:56;24.00;90.20
14140;DHT22;7150;53.514;9.988;2023-06-24T00:48:23;24.00;90.20
14140;DHT22;7150;53.514;9.988;2023-06-24T00:50:49;24.00;90.20
14140;DHT22;7150;53.514;9.988;2023-06-24T00:53:16;24.00;90.30
14140;DHT22;7150;53.514;9.988;2023-06-24T00:55:41;24.00;90.30
14140;DHT22;7150;53.514;9.988;2023-06-24T00:58:07;23.90;90.30
14140;DHT22;7150;53.514;9.988;2023-06-24T01:00:33;23.90;90.40
14140;DHT22;7150;53.514;9.988;2023-06-24T01:03:00;23.90;90.40
14140;DHT22;7150;53.514;9.988;2023-06-24T01:05:28;23.90;90.50
14140;DHT22;7150;53.514;9.988;2023-06-24T01:08:01;23.90;90.50
14140;DHT22;7150;53.514;9.988;2023-06-24T01:10:27;23.90;90.50
14140;DHT22;7150;53.514;9.988;2023-06-24T01:13:11;23.90;90.60
14140;DHT22;7150;53.514;9.988;2023-06-24T01:15:37;23.90;90.50
14140;DHT22;7150;53.514;9.988;2023-06-24T01:20:59;23.80;90.70
14140;DHT22;7150;53.514;9.988;2023-06-24T01:30:10;23.80;90.80
14140;DHT22;7150;53.514;9.988;2023-06-24T01:33:04;23.80;90.90
14140;DHT22;7150;53.514;9.988;2023-06-24T01:35:35;23.80;91.00
14140;DHT22;7150;53.514;9.988;2023-06-24T01:38:07;23.70;91.10
14140;DHT22;7150;53.514;9.988;2023-06-24T01:40:38;23.70;91.20
14140;DHT22;7150;53.514;9.988;2023-06-24T01:43:06;23.60;91.20
14140;DHT22;7150;53.514;9.988;2023-06-24T01:45:42;23.60;91.30
14140;DHT22;7150;53.514;9.988;2023-06-24T01:48:15;23.60;91.30
14140;DHT22;7150;53.514;9.988;2023-06-24T01:51:05;23.50;91.40
14140;DHT22;7150;53.514;9.988;2023-06-24T01:53:34;23.50;91.40
14140;DHT22;7150;53.514;9.988;2023-06-24T01:56:03;23.50;91.50
14140;DHT22;7150;53.514;9.988;2023-06-24T01:58:31;23.50;91.60
14140;DHT22;7150;53.514;9.988;2023-06-24T02:01:00;23.50;91.60
14140;DHT22;7150;53.514;9.988;2023-06-24T02:03:27;23.50;91.70
14140;DHT22;7150;53.514;9.988;2023-06-24T02:05:53;23.50;91.70
14140;DHT22;7150;53.514;9.988;2023-06-24T02:08:21;23.40;91.70
14140;DHT22;7150;53.514;9.988;2023-06-24T02:10:48;23.40;91.80
14140;DHT22;7150;53.514;9.988;2023-06-24T02:13:16;23.40;91.80
14140;DHT22;7150;53.514;9.988;2023-06-24T02:15:42;23.30;91.80
14140;DHT22;7150;53.514;9.988;2023-06-24T02:18:11;23.40;91.80
14140;DHT22;7150;53.514;9.988;2023-06-24T02:20:39;23.40;91.80
14140;DHT22;7150;53.514;9.988;2023-06-24T02:23:07;23.30;91.80
14140;DHT22;7150;53.514;9.988;2023-06-24T02:25:35;23.30;91.90
14140;DHT22;7150;53.514;9.988;2023-06-24T02:28:04;23.30;91.90
14140;DHT22;7150;53.514;9.988;2023-06-24T02:30:30;23.30;92.00
14140;DHT22;7150;53.514;9.988;2023-06-24T02:32:56;23.20;92.00
14140;DHT22;7150;53.514;9.988;2023-06-24T02:35:22;23.20;92.00
14140;DHT22;7150;53.514;9.988;2023-06-24T02:37:47;23.20;92.10
14140;DHT22;7150;53.514;9.988;2023-06-24T02:40:13;23.10;92.10
14140;DHT22;7150;53.514;9.988;2023-06-24T02:42:38;23.10;92.20
14140;DHT22;7150;53.514;9.988;2023-06-24T02:45:05;23.10;92.20
14140;DHT22;7150;53.514;9.988;2023-06-24T02:47:31;23.10;92.20
14140;DHT22;7150;53.514;9.988;2023-06-24T02:49:57;23.10;92.20
14140;DHT22;7150;53.514;9.988;2023-06-24T02:52:24;23.10;92.30
14140;DHT22;7150;53.514;9.988;2023-06-24T02:54:55;23.00;92.30
14140;DHT22;7150;53.514;9.988;2023-06-24T02:57:21;23.10;92.40
14140;DHT22;7150;53.514;9.988;2023-06-24T02:59:47;23.10;92.40
14140;DHT22;7150;53.514;9.988;2023-06-24T03:02:13;23.00;92.30
14140;DHT22;7150;53.514;9.988;2023-06-24T03:04:40;23.00;92.40
14140;DHT22;7150;53.514;9.988;2023-06-24T03:07:06;23.00;92.40
14140;DHT22;7150;53.514;9.988;2023-06-24T03:09:34;23.00;92.40
14140;DHT22;7150;53.514;9.988;2023-06-24T03:12:00;23.10;92.40
14140;DHT22;7150;53.514;9.988;2023-06-24T03:14:25;23.10;92.30
14140;DHT22;7150;53.514;9.988;2023-06-24T03:16:51;23.10;92.30
14140;DHT22;7150;53.514;9.988;2023-06-24T03:19:16;23.10;92.60
14140;DHT22;7150;53.514;9.988;2023-06-24T03:21:42;23.10;92.30
14140;DHT22;7150;53.514;9.988;2023-06-24T03:24:07;23.10;92.30
14140;DHT22;7150;53.514;9.988;2023-06-24T03:26:35;23.00;92.30
14140;DHT22;7150;53.514;9.988;2023-06-24T03:29:01;23.00;92.30
14140;DHT22;7150;53.514;9.988;2023-06-24T03:31:27;23.00;92.40
14140;DHT22;7150;53.514;9.988;2023-06-24T03:33:52;23.00;92.40
14140;DHT22;7150;53.514;9.988;2023-06-24T03:36:18;23.00;92.40
14140;DHT22;7150;53.514;9.988;2023-06-24T03:38:43;23.00;92.30
14140;DHT22;7150;53.514;9.988;2023-06-24T03:41:09;23.10;92.30
14140;DHT22;7150;53.514;9.988;2023-06-24T03:43:34;23.10;92.30
14140;DHT22;7150;53.514;9.988;2023-06-24T03:46:00;23.10;92.30
14140;DHT22;7150;53.514;9.988;2023-06-24T03:48:25;23.10;92.20
14140;DHT22;7150;53.514;9.988;2023-06-24T03:50:51;23.00;92.20
14140;DHT22;7150;53.514;9.988;2023-06-24T03:53:16;23.10;92.30
14140;DHT22;7150;53.514;9.988;2023-06-24T03:55:42;23.00;92.30
14140;DHT22;7150;53.514;9.988;2023-06-24T03:58:07;23.00;92.30
14140;DHT22;7150;53.514;9.988;2023-06-24T04:00:33;23.00;92.30
14140;DHT22;7150;53.514;9.988;2023-06-24T04:02:59;23.00;92.30
14140;DHT22;7150;53.514;9.988;2023-06-24T04:05:26;23.10;92.40
14140;DHT22;7150;53.514;9.988;2023-06-24T04:07:52;23.10;92.40
14140;DHT22;7150;53.514;9.988;2023-06-24T04:10:18;23.10;92.30
14140;DHT22;7150;53.514;9.988;2023-06-24T04:12:45;23.10;92.30
14140;DHT22;7150;53.514;9.988;2023-06-24T04:15:10;23.10;92.30
14140;DHT22;7150;53.514;9.988;2023-06-24T04:17:36;23.20;92.30
14140;DHT22;7150;53.514;9.988;2023-06-24T04:20:02;23.20;92.30
14140;DHT22;7150;53.514;9.988;2023-06-24T04:22:34;23.20;92.30
14140;DHT22;7150;53.514;9.988;2023-06-24T04:25:00;23.20;92.20
14140;DHT22;7150;53.514;9.988;2023-06-24T04:27:25;23.20;92.20
14140;DHT22;7150;53.514;9.988;2023-06-24T04:29:51;23.20;92.20
14140;DHT22;7150;53.514;9.988;2023-06-24T04:32:16;23.20;92.30
14140;DHT22;7150;53.514;9.988;2023-06-24T04:34:41;23.20;92.30
14140;DHT22;7150;53.514;9.988;2023-06-24T04:37:07;23.20;92.30
14140;DHT22;7150;53.514;9.988;2023-06-24T04:39:32;23.20;92.30
14140;DHT22;7150;53.514;9.988;2023-06-24T04:41:58;23.20;92.30
14140;DHT22;7150;53.514;9.988;2023-06-24T04:44:23;23.30;92.30
14140;DHT22;7150;53.514;9.988;2023-06-24T04:46:49;23.20;92.30
14140;DHT22;7150;53.514;9.988;2023-06-24T04:49:14;23.30;92.30
14140;DHT22;7150;53.514;9.988;2023-06-24T04:51:40;23.30;92.30
14140;DHT22;7150;53.514;9.988;2023-06-24T04:54:06;23.30;92.20
14140;DHT22;7150;53.514;9.988;2023-06-24T04:56:33;23.40;92.30
14140;DHT22;7150;53.514;9.988;2023-06-24T04:59:00;23.40;92.20
14140;DHT22;7150;53.514;9.988;2023-06-24T05:01:25;23.40;92.20
14140;DHT22;7150;53.514;9.988;2023-06-24T05:03:51;23.40;92.20
14140;DHT22;7150;53.514;9.988;2023-06-24T05:06:16;23.40;92.20
14140;DHT22;7150;53.514;9.988;2023-06-24T05:08:42;23.40;92.20
14140;DHT22;7150;53.514;9.988;2023-06-24T05:11:07;23.50;92.20
14140;DHT22;7150;53.514;9.988;2023-06-24T05:13:32;23.50;92.20
14140;DHT22;7150;53.514;9.988;2023-06-24T05:15:58;23.50;92.10
14140;DHT22;7150;53.514;9.988;2023-06-24T05:18:23;23.50;92.10
14140;DHT22;7150;53.514;9.988;2023-06-24T05:20:49;23.50;92.10
14140;DHT22;7150;53.514;9.988;2023-06-24T05:23:15;23.50;92.10
14140;DHT22;7150;53.514;9.988;2023-06-24T05:25:40;23.50;92.10
14140;DHT22;7150;53.514;9.988;2023-06-24T05:28:05;23.60;92.10
14140;DHT22;7150;53.514;9.988;2023-06-24T05:30:31;23.60;92.10
14140;DHT22;7150;53.514;9.988;2023-06-24T05:32:56;23.60;92.00
14140;DHT22;7150;53.514;9.988;2023-06-24T05:35:22;23.60;92.00
14140;DHT22;7150;53.514;9.988;2023-06-24T05:37:47;23.70;92.00
14140;DHT22;7150;53.514;9.988;2023-06-24T05:40:13;23.70;92.00
14140;DHT22;7150;53.514;9.988;2023-06-24T05:42:39;23.70;92.00
14140;DHT22;7150;53.514;9.988;2023-06-24T05:45:05;23.70;91.90
14140;DHT22;7150;53.514;9.988;2023-06-24T05:47:32;23.80;91.90
14140;DHT22;7150;53.514;9.988;2023-06-24T05:49:58;23.80;91.80
14140;DHT22;7150;53.514;9.988;2023-06-24T05:52:24;23.80;91.80
14140;DHT22;7150;53.514;9.988;2023-06-24T05:54:49;23.80;91.70
14140;DHT22;7150;53.514;9.988;2023-06-24T05:57:15;23.80;91.70
14140;DHT22;7150;53.514;9.988;2023-06-24T05:59:40;23.80;91.70
14140;DHT22;7150;53.514;9.988;2023-06-24T06:02:06;23.80;91.70
14140;DHT22;7150;53.514;9.988;2023-06-24T06:04:32;23.80;91.60
14140;DHT22;7150;53.514;9.988;2023-06-24T06:06:57;23.80;91.60
14140;DHT22;7150;53.514;9.988;2023-06-24T06:09:23;23.80;91.60
14140;DHT22;7150;53.514;9.988;2023-06-24T06:11:48;23.80;91.50
14140;DHT22;7150;53.514;9.988;2023-06-24T06:14:14;23.90;91.50
14140;DHT22;7150;53.514;9.988;2023-06-24T06:16:39;23.90;91.30
14140;DHT22;7150;53.514;9.988;2023-06-24T06:19:05;23.90;91.10
14140;DHT22;7150;53.514;9.988;2023-06-24T06:21:31;23.90;91.10
14140;DHT22;7150;53.514;9.988;2023-06-24T06:23:56;24.00;91.00
14140;DHT22;7150;53.514;9.988;2023-06-24T06:26:22;24.00;90.90
14140;DHT22;7150;53.514;9.988;2023-06-24T06:28:48;24.00;90.90
14140;DHT22;7150;53.514;9.988;2023-06-24T06:31:14;24.00;90.80
14140;DHT22;7150;53.514;9.988;2023-06-24T06:33:39;24.00;90.70
14140;DHT22;7150;53.514;9.988;2023-06-24T06:36:05;24.10;90.70
14140;DHT22;7150;53.514;9.988;2023-06-24T06:38:32;24.10;90.70
14140;DHT22;7150;53.514;9.988;2023-06-24T06:40:58;24.10;90.50
14140;DHT22;7150;53.514;9.988;2023-06-24T06:43:23;24.20;90.10
14140;DHT22;7150;53.514;9.988;2023-06-24T06:45:49;24.20;89.40
14140;DHT22;7150;53.514;9.988;2023-06-24T06:48:14;24.20;89.50
14140;DHT22;7150;53.514;9.988;2023-06-24T06:50:40;24.20;89.30
14140;DHT22;7150;53.514;9.988;2023-06-24T06:53:05;24.20;89.30
14140;DHT22;7150;53.514;9.988;2023-06-24T06:55:31;24.20;89.30
14140;DHT22;7150;53.514;9.988;2023-06-24T06:57:56;24.20;89.40
14140;DHT22;7150;53.514;9.988;2023-06-24T07:00:22;24.20;89.20
14140;DHT22;7150;53.514;9.988;2023-06-24T07:02:47;24.20;88.70
14140;DHT22;7150;53.514;9.988;2023-06-24T07:05:13;24.20;88.80
14140;DHT22;7150;53.514;9.988;2023-06-24T07:07:38;24.20;88.40
14140;DHT22;7150;53.514;9.988;2023-06-24T07:10:05;24.20;88.40
14140;DHT22;7150;53.514;9.988;2023-06-24T07:12:30;24.30;88.40
14140;DHT22;7150;53.514;9.988;2023-06-24T07:14:56;24.30;88.10
14140;DHT22;7150;53.514;9.988;2023-06-24T07:17:22;24.30;87.50
14140;DHT22;7150;53.514;9.988;2023-06-24T07:19:47;24.30;87.40
14140;DHT22;7150;53.514;9.988;2023-06-24T07:22:13;24.40;87.10
14140;DHT22;7150;53.514;9.988;2023-06-24T07:24:39;24.40;87.20
14140;DHT22;7150;53.514;9.988;2023-06-24T07:27:05;24.40;87.30
14140;DHT22;7150;53.514;9.988;2023-06-24T07:29:30;24.40;87.40
14140;DHT22;7150;53.514;9.988;2023-06-24T07:31:56;24.50;87.60
14140;DHT22;7150;53.514;9.988;2023-06-24T07:34:21;24.50;87.50
14140;DHT22;7150;53.514;9.988;2023-06-24T07:36:47;24.50;87.30
14140;DHT22;7150;53.514;9.988;2023-06-24T07:39:12;24.50;87.40
14140;DHT22;7150;53.514;9.988;2023-06-24T07:41:38;24.50;87.60
14140;DHT22;7150;53.514;9.988;2023-06-24T07:44:04;24.50;87.60
14140;DHT22;7150;53.514;9.988;2023-06-24T07:46:30;24.50;87.50
14140;DHT22;7150;53.514;9.988;2023-06-24T07:48:55;24.50;87.60
14140;DHT22;7150;53.514;9.988;2023-06-24T07:51:21;24.50;87.80
14140;DHT22;7150;53.514;9.988;2023-06-24T07:53:47;24.60;88.00
14140;DHT22;7150;53.514;9.988;2023-06-24T07:56:12;24.60;87.60
14140;DHT22;7150;53.514;9.988;2023-06-24T07:58:38;24.60;87.30
14140;DHT22;7150;53.514;9.988;2023-06-24T08:01:04;24.60;87.00
14140;DHT22;7150;53.514;9.988;2023-06-24T08:03:29;24.70;86.90
14140;DHT22;7150;53.514;9.988;2023-06-24T08:05:55;24.60;86.80
14140;DHT22;7150;53.514;9.988;2023-06-24T08:08:22;24.70;87.00
14140;DHT22;7150;53.514;9.988;2023-06-24T08:10:47;24.60;86.80
14140;DHT22;7150;53.514;9.988;2023-06-24T08:13:13;24.80;87.00
14140;DHT22;7150;53.514;9.988;2023-06-24T08:15:38;24.80;86.70
14140;DHT22;7150;53.514;9.988;2023-06-24T08:18:04;24.90;86.40
14140;DHT22;7150;53.514;9.988;2023-06-24T08:20:29;24.90;86.00
14140;DHT22;7150;53.514;9.988;2023-06-24T08:22:55;24.90;85.50
14140;DHT22;7150;53.514;9.988;2023-06-24T08:25:20;24.90;85.90
14140;DHT22;7150;53.514;9.988;2023-06-24T08:27:46;24.90;85.10
14140;DHT22;7150;53.514;9.988;2023-06-24T08:30:13;24.90;85.10
14140;DHT22;7150;53.514;9.988;2023-06-24T08:32:40;24.90;85.00
14140;DHT22;7150;53.514;9.988;2023-06-24T08:35:07;24.90;84.60
14140;DHT22;7150;53.514;9.988;2023-06-24T08:37:33;24.90;84.50
14140;DHT22;7150;53.514;9.988;2023-06-24T08:39:59;24.90;84.30
14140;DHT22;7150;53.514;9.988;2023-06-24T08:42:25;24.90;84.40
14140;DHT22;7150;53.514;9.988;2023-06-24T08:44:50;24.90;84.30
14140;DHT22;7150;53.514;9.988;2023-06-24T08:47:16;25.00;84.00
14140;DHT22;7150;53.514;9.988;2023-06-24T08:49:55;25.00;82.80
14140;DHT22;7150;53.514;9.988;2023-06-24T08:52:26;25.00;82.70
14140;DHT22;7150;53.514;9.988;2023-06-24T08:54:55;24.90;82.10
14140;DHT22;7150;53.514;9.988;2023-06-24T08:57:23;25.00;81.90
14140;DHT22;7150;53.514;9.988;2023-06-24T08:59:49;25.00;81.30
14140;DHT22;7150;53.514;9.988;2023-06-24T09:02:14;25.10;81.00
14140;DHT22;7150;53.514;9.988;2023-06-24T09:04:40;25.10;80.10
14140;DHT22;7150;53.514;9.988;2023-06-24T09:07:06;25.10;79.70
14140;DHT22;7150;53.514;9.988;2023-06-24T09:09:31;25.20;79.20
14140;DHT22;7150;53.514;9.988;2023-06-24T09:11:59;25.20;79.20
14140;DHT22;7150;53.514;9.988;2023-06-24T09:14:25;25.20;79.10
14140;DHT22;7150;53.514;9.988;2023-06-24T09:16:53;25.30;79.40
14140;DHT22;7150;53.514;9.988;2023-06-24T09:19:20;25.30;79.80
14140;DHT22;7150;53.514;9.988;2023-06-24T09:21:46;25.40;80.00
14140;DHT22;7150;53.514;9.988;2023-06-24T09:24:12;25.40;80.30
14140;DHT22;7150;53.514;9.988;2023-06-24T09:26:37;25.30;80.20
14140;DHT22;7150;53.514;9.988;2023-06-24T09:29:03;25.30;80.40
14140;DHT22;7150;53.514;9.988;2023-06-24T09:31:29;25.40;80.60
14140;DHT22;7150;53.514;9.988;2023-06-24T09:33:58;25.40;80.90
14140;DHT22;7150;53.514;9.988;2023-06-24T09:36:24;25.50;80.60
14140;DHT22;7150;53.514;9.988;2023-06-24T09:38:49;25.50;80.60
14140;DHT22;7150;53.514;9.988;2023-06-24T09:41:15;25.50;80.40
14140;DHT22;7150;53.514;9.988;2023-06-24T09:43:42;25.60;80.20
14140;DHT22;7150;53.514;9.988;2023-06-24T09:46:10;25.60;80.00
14140;DHT22;7150;53.514;9.988;2023-06-24T09:48:35;25.60;80.00
14140;DHT22;7150;53.514;9.988;2023-06-24T09:51:03;25.70;79.70
14140;DHT22;7150;53.514;9.988;2023-06-24T09:53:33;25.70;79.60
14140;DHT22;7150;53.514;9.988;2023-06-24T09:56:04;25.70;79.00
14140;DHT22;7150;53.514;9.988;2023-06-24T09:58:36;25.80;78.80
14140;DHT22;7150;53.514;9.988;2023-06-24T10:01:04;25.80;78.80
14140;DHT22;7150;53.514;9.988;2023-06-24T10:03:32;25.80;78.80
14140;DHT22;7150;53.514;9.988;2023-06-24T10:06:00;25.80;79.10
14140;DHT22;7150;53.514;9.988;2023-06-24T10:08:27;25.90;79.10
14140;DHT22;7150;53.514;9.988;2023-06-24T10:10:52;25.90;78.90
14140;DHT22;7150;53.514;9.988;2023-06-24T10:13:18;25.90;78.70
14140;DHT22;7150;53.514;9.988;2023-06-24T10:15:44;26.00;78.40
14140;DHT22;7150;53.514;9.988;2023-06-24T10:20:56;26.10;78.10
14140;DHT22;7150;53.514;9.988;2023-06-24T10:23:39;26.10;78.20
14140;DHT22;7150;53.514;9.988;2023-06-24T10:26:10;26.20;77.90
14140;DHT22;7150;53.514;9.988;2023-06-24T10:36:54;26.20;78.70
14140;DHT22;7150;53.514;9.988;2023-06-24T10:42:37;26.30;77.60
14140;DHT22;7150;53.514;9.988;2023-06-24T10:47:42;26.20;77.40
14140;DHT22;7150;53.514;9.988;2023-06-24T10:50:10;26.30;77.80
14140;DHT22;7150;53.514;9.988;2023-06-24T10:52:41;26.40;77.90
14140;DHT22;7150;53.514;9.988;2023-06-24T10:55:07;26.40;77.60
14140;DHT22;7150;53.514;9.988;2023-06-24T10:57:33;26.50;77.60
14140;DHT22;7150;53.514;9.988;2023-06-24T10:59:58;26.50;77.30
14140;DHT22;7150;53.514;9.988;2023-06-24T11:02:26;26.50;77.40
14140;DHT22;7150;53.514;9.988;2023-06-24T11:04:56;26.50;77.70
14140;DHT22;7150;53.514;9.988;2023-06-24T11:07:26;26.60;77.80
14140;DHT22;7150;53.514;9.988;2023-06-24T11:09:54;26.60;77.60
14140;DHT22;7150;53.514;9.988;2023-06-24T11:12:24;26.70;77.40
14140;DHT22;7150;53.514;9.988;2023-06-24T11:14:50;26.70;77.30
14140;DHT22;7150;53.514;9.988;2023-06-24T11:17:16;26.80;77.20
14140;DHT22;7150;53.514;9.988;2023-06-24T11:19:41;26.80;77.40
14140;DHT22;7150;53.514;9.988;2023-06-24T11:22:09;26.80;77.30
14140;DHT22;7150;53.514;9.988;2023-06-24T11:24:35;26.90;77.40
14140;DHT22;7150;53.514;9.988;2023-06-24T11:27:02;27.00;77.60
14140;DHT22;7150;53.514;9.988;2023-06-24T11:29:29;27.10;77.50
14140;DHT22;7150;53.514;9.988;2023-06-24T11:31:55;27.10;77.30
14140;DHT22;7150;53.514;9.988;2023-06-24T11:34:21;27.20;77.00
14140;DHT22;7150;53.514;9.988;2023-06-24T11:36:48;27.20;76.90
14140;DHT22;7150;53.514;9.988;2023-06-24T11:39:27;27.30;77.10
14140;DHT22;7150;53.514;9.988;2023-06-24T11:41:53;27.40;76.90
14140;DHT22;7150;53.514;9.988;2023-06-24T11:44:20;27.50;77.00
14140;DHT22;7150;53.514;9.988;2023-06-24T11:46:46;27.60;76.90
14140;DHT22;7150;53.514;9.988;2023-06-24T11:49:12;27.60;76.80
14140;DHT22;7150;53.514;9.988;2023-06-24T11:51:49;27.70;76.30
14140;DHT22;7150;53.514;9.988;2023-06-24T11:54:16;27.80;75.30
14140;DHT22;7150;53.514;9.988;2023-06-24T11:56:43;27.90;74.90
14140;DHT22;7150;53.514;9.988;2023-06-24T11:59:23;27.90;73.30
14140;DHT22;7150;53.514;9.988;2023-06-24T12:01:55;28.00;72.60
14140;DHT22;7150;53.514;9.988;2023-06-24T12:04:22;28.10;72.00
14140;DHT22;7150;53.514;9.988;2023-06-24T12:06:52;28.30;72.00
14140;DHT22;7150;53.514;9.988;2023-06-24T12:09:17;28.40;71.50
14140;DHT22;7150;53.514;9.988;2023-06-24T12:11:43;28.60;71.60
14140;DHT22;7150;53.514;9.988;2023-06-24T12:14:08;28.80;71.80
14140;DHT22;7150;53.514;9.988;2023-06-24T12:16:34;29.00;71.50
14140;DHT22;7150;53.514;9.988;2023-06-24T12:18:59;29.30;70.90
14140;DHT22;7150;53.514;9.988;2023-06-24T12:21:25;29.40;69.80
14140;DHT22;7150;53.514;9.988;2023-06-24T12:23:50;29.50;69.70
14140;DHT22;7150;53.514;9.988;2023-06-24T12:26:16;29.50;69.50
14140;DHT22;7150;53.514;9.988;2023-06-24T12:28:41;29.40;69.50
14140;DHT22;7150;53.514;9.988;2023-06-24T12:31:07;29.30;70.10
14140;DHT22;7150;53.514;9.988;2023-06-24T12:33:32;29.20;70.40
14140;DHT22;7150;53.514;9.988;2023-06-24T12:35:58;29.20;70.20
14140;DHT22;7150;53.514;9.988;2023-06-24T12:38:24;29.10;70.10
14140;DHT22;7150;53.514;9.988;2023-06-24T12:40:49;29.10;70.00
14140;DHT22;7150;53.514;9.988;2023-06-24T12:43:15;29.00;70.30
14140;DHT22;7150;53.514;9.988;2023-06-24T12:45:41;29.00;70.40
14140;DHT22;7150;53.514;9.988;2023-06-24T12:48:12;29.00;70.30
14140;DHT22;7150;53.514;9.988;2023-06-24T12:50:38;29.00;70.20
14140;DHT22;7150;53.514;9.988;2023-06-24T12:53:03;29.00;69.90
14140;DHT22;7150;53.514;9.988;2023-06-24T12:55:29;28.90;69.80
14140;DHT22;7150;53.514;9.988;2023-06-24T12:57:55;28.90;70.10
14140;DHT22;7150;53.514;9.988;2023-06-24T13:00:22;28.90;70.60
14140;DHT22;7150;53.514;9.988;2023-06-24T13:02:48;28.90;70.70
14140;DHT22;7150;53.514;9.988;2023-06-24T13:05:13;28.80;70.60
14140;DHT22;7150;53.514;9.988;2023-06-24T13:07:39;28.80;70.70
14140;DHT22;7150;53.514;9.988;2023-06-24T13:10:05;28.60;70.60
14140;DHT22;7150;53.514;9.988;2023-06-24T13:12:34;28.60;71.30
14140;DHT22;7150;53.514;9.988;2023-06-24T13:15:00;28.50;71.60
14140;DHT22;7150;53.514;9.988;2023-06-24T13:17:26;28.50;71.90
14140;DHT22;7150;53.514;9.988;2023-06-24T13:19:52;28.60;72.10
14140;DHT22;7150;53.514;9.988;2023-06-24T13:22:18;28.60;72.00
14140;DHT22;7150;53.514;9.988;2023-06-24T13:24:44;28.60;71.60
14140;DHT22;7150;53.514;9.988;2023-06-24T13:27:10;28.60;72.00
14140;DHT22;7150;53.514;9.988;2023-06-24T13:29:35;28.70;71.70
14140;DHT22;7150;53.514;9.988;2023-06-24T13:32:01;28.70;71.20
14140;DHT22;7150;53.514;9.988;2023-06-24T13:34:26;28.70;71.10
14140;DHT22;7150;53.514;9.988;2023-06-24T13:36:52;28.70;71.10
14140;DHT22;7150;53.514;9.988;2023-06-24T13:39:18;28.70;71.30
14140;DHT22;7150;53.514;9.988;2023-06-24T13:41:46;28.70;71.20
14140;DHT22;7150;53.514;9.988;2023-06-24T13:44:12;28.60;70.90
14140;DHT22;7150;53.514;9.988;2023-06-24T13:46:38;28.60;71.00
14140;DHT22;7150;53.514;9.988;2023-06-24T13:49:04;28.60;71.10
14140;DHT22;7150;53.514;9.988;2023-06-24T13:51:29;28.70;70.90
14140;DHT22;7150;53.514;9.988;2023-06-24T13:53:55;28.60;70.90
14140;DHT22;7150;53.514;9.988;2023-06-24T13:56:22;28.60;71.30
14140;DHT22;7150;53.514;9.988;2023-06-24T13:58:53;28.70;71.50
14140;DHT22;7150;53.514;9.988;2023-06-24T14:01:19;28.80;71.20
14140;DHT22;7150;53.514;9.988;2023-06-24T14:03:45;28.90;70.60
14140;DHT22;7150;53.514;9.988;2023-06-24T14:06:13;29.00;70.20
14140;DHT22;7150;53.514;9.988;2023-06-24T14:08:39;29.10;69.40
14140;DHT22;7150;53.514;9.988;2023-06-24T14:11:05;29.20;69.00
14140;DHT22;7150;53.514;9.988;2023-06-24T14:13:30;29.20;69.00
14140;DHT22;7150;53.514;9.988;2023-06-24T14:15:57;29.20;69.00
14140;DHT22;7150;53.514;9.988;2023-06-24T14:18:23;29.30;69.00
14140;DHT22;7150;53.514;9.988;2023-06-24T14:23:15;29.40;68.00
14140;DHT22;7150;53.514;9.988;2023-06-24T14:28:07;26.40;75.60
14140;DHT22;7150;53.514;9.988;2023-06-24T14:33:00;25.50;79.40
14140;DHT22;7150;53.514;9.988;2023-06-24T14:40:17;25.60;81.30
14140;DHT22;7150;53.514;9.988;2023-06-24T14:42:43;25.80;82.80
14140;DHT22;7150;53.514;9.988;2023-06-24T14:45:08;25.90;82.40
14140;DHT22;7150;53.514;9.988;2023-06-24T14:47:34;26.00;82.50
14140;DHT22;7150;53.514;9.988;2023-06-24T14:50:00;26.00;81.60
14140;DHT22;7150;53.514;9.988;2023-06-24T14:52:25;26.10;81.80
14140;DHT22;7150;53.514;9.988;2023-06-24T14:54:51;26.10;80.70
14140;DHT22;7150;53.514;9.988;2023-06-24T14:57:16;26.10;80.30
14140;DHT22;7150;53.514;9.988;2023-06-24T14:59:42;26.00;80.20
14140;DHT22;7150;53.514;9.988;2023-06-24T15:02:07;26.00;79.80
14140;DHT22;7150;53.514;9.988;2023-06-24T15:04:34;26.00;79.40
14140;DHT22;7150;53.514;9.988;2023-06-24T15:07:00;26.10;78.90
14140;DHT22;7150;53.514;9.988;2023-06-24T15:09:25;26.20;80.00
14140;DHT22;7150;53.514;9.988;2023-06-24T15:11:51;26.60;79.00
14140;DHT22;7150;53.514;9.988;2023-06-24T15:14:17;27.30;76.60
14140;DHT22;7150;53.514;9.988;2023-06-24T15:16:42;28.20;73.90
14140;DHT22;7150;53.514;9.988;2023-06-24T15:19:08;28.80;73.70
14140;DHT22;7150;53.514;9.988;2023-06-24T15:21:33;28.80;71.40
14140;DHT22;7150;53.514;9.988;2023-06-24T15:23:58;28.50;71.90
14140;DHT22;7150;53.514;9.988;2023-06-24T15:26:24;28.10;72.70
14140;DHT22;7150;53.514;9.988;2023-06-24T15:28:49;28.00;73.40
14140;DHT22;7150;53.514;9.988;2023-06-24T15:31:15;27.90;72.80
14140;DHT22;7150;53.514;9.988;2023-06-24T15:33:40;27.70;73.30
14140;DHT22;7150;53.514;9.988;2023-06-24T15:36:06;27.60;73.50
14140;DHT22;7150;53.514;9.988;2023-06-24T15:38:32;27.40;73.80
14140;DHT22;7150;53.514;9.988;2023-06-24T15:40:58;27.10;73.60
14140;DHT22;7150;53.514;9.988;2023-06-24T15:43:23;26.70;74.50
14140;DHT22;7150;53.514;9.988;2023-06-24T15:45:49;26.60;75.60
14140;DHT22;7150;53.514;9.988;2023-06-24T15:48:14;26.50;76.80
14140;DHT22;7150;53.514;9.988;2023-06-24T15:50:40;26.50;76.50
14140;DHT22;7150;53.514;9.988;2023-06-24T15:53:06;26.40;76.60
14140;DHT22;7150;53.514;9.988;2023-06-24T15:55:31;26.30;77.00
14140;DHT22;7150;53.514;9.988;2023-06-24T15:57:57;26.20;77.00
14140;DHT22;7150;53.514;9.988;2023-06-24T16:00:22;26.20;77.70
14140;DHT22;7150;53.514;9.988;2023-06-24T16:02:48;26.10;78.10
14140;DHT22;7150;53.514;9.988;2023-06-24T16:05:13;26.10;78.20
14140;DHT22;7150;53.514;9.988;2023-06-24T16:07:39;26.10;79.00
14140;DHT22;7150;53.514;9.988;2023-06-24T16:10:05;26.00;78.70
14140;DHT22;7150;53.514;9.988;2023-06-24T16:12:30;25.90;79.40
14140;DHT22;7150;53.514;9.988;2023-06-24T16:14:56;25.90;79.50
14140;DHT22;7150;53.514;9.988;2023-06-24T16:17:21;25.80;80.30
14140;DHT22;7150;53.514;9.988;2023-06-24T16:19:47;25.80;80.70